createdAt,value
2023-04-09T00:01:08.528Z,27.77
2023-04-09T00:03:55.939Z,27.30
2023-04-09T00:06:43.531Z,26.00
2023-04-09T00:09:31.989Z,28.53
2023-04-09T00:12:21.069Z,28.80
2023-04-09T00:15:15.044Z,26.60
2023-04-09T00:18:08.165Z,30.60
2023-04-09T00:20:55.596Z,27.07
2023-04-09T00:23:43.121Z,24.07
2023-04-09T00:26:30.276Z,26.50
2023-04-09T00:29:19.232Z,25.57
2023-04-09T00:32:06.974Z,27.40
2023-04-09T00:34:54.095Z,23.77
2023-04-09T00:37:41.456Z,27.00
2023-04-09T00:40:29.180Z,24.93
2023-04-09T00:43:16.702Z,26.73
2023-04-09T00:46:06.404Z,24.53
2023-04-09T00:48:53.948Z,25.93
2023-04-09T00:51:41.704Z,27.53
2023-04-09T00:54:29.338Z,25.67
2023-04-09T00:57:17.142Z,24.13
2023-04-09T01:00:07.175Z,26.30
2023-04-09T01:02:58.453Z,30.90
2023-04-09T01:05:52.204Z,27.80
2023-04-09T01:08:47.719Z,26.03
2023-04-09T01:11:41.601Z,31.03
2023-04-09T01:14:35.961Z,28.23
2023-04-09T01:17:32.139Z,29.33
2023-04-09T01:20:29.762Z,31.37
2023-04-09T01:23:25.720Z,27.83
2023-04-09T01:26:22.454Z,26.13
2023-04-09T01:29:16.982Z,29.60
2023-04-09T01:32:06.156Z,28.93
2023-04-09T01:34:54.966Z,26.93
2023-04-09T01:37:43.380Z,24.70
2023-04-09T01:40:30.906Z,25.80
2023-04-09T01:43:19.465Z,32.40
2023-04-09T01:46:08.560Z,34.70
2023-04-09T01:48:56.831Z,27.63
2023-04-09T01:51:44.184Z,29.63
2023-04-09T01:54:31.568Z,28.60
2023-04-09T01:57:25.340Z,31.63
2023-04-09T02:00:13.856Z,27.73
2023-04-09T02:03:09.529Z,28.73
2023-04-09T02:06:02.546Z,27.97
2023-04-09T02:08:51.615Z,28.43
2023-04-09T02:11:41.202Z,27.70
2023-04-09T02:14:30.308Z,27.30
2023-04-09T02:17:17.533Z,33.77
2023-04-09T02:20:07.492Z,28.93
2023-04-09T02:22:54.823Z,29.20
2023-04-09T02:25:42.555Z,26.63
2023-04-09T02:28:29.885Z,28.37
2023-04-09T02:31:16.991Z,28.27
2023-04-09T02:34:04.331Z,29.13
2023-04-09T02:36:53.101Z,31.20
2023-04-09T02:39:40.224Z,31.13
2023-04-09T02:42:27.641Z,30.53
2023-04-09T02:45:15.202Z,29.07
2023-04-09T02:48:02.686Z,26.60
2023-04-09T02:50:54.475Z,31.07
2023-04-09T02:53:43.223Z,28.37
2023-04-09T02:56:30.479Z,27.83
2023-04-09T02:59:17.881Z,29.67
2023-04-09T03:02:06.742Z,28.37
2023-04-09T03:04:54.133Z,33.73
2023-04-09T03:07:41.631Z,31.47
2023-04-09T03:10:30.516Z,30.77
2023-04-09T03:13:17.668Z,30.37
2023-04-09T03:16:05.629Z,29.97
2023-04-09T03:18:53.495Z,30.23
2023-04-09T03:21:41.275Z,31.77
2023-04-09T03:24:28.738Z,28.33
2023-04-09T03:27:21.839Z,29.03
2023-04-09T03:30:13.621Z,32.20
2023-04-09T03:33:04.687Z,28.87
2023-04-09T03:35:56.705Z,28.73
2023-04-09T03:38:56.857Z,30.07
2023-04-09T03:41:49.920Z,31.93
2023-04-09T03:44:40.331Z,28.83
2023-04-09T03:47:30.620Z,33.17
2023-04-09T03:50:18.210Z,34.37
2023-04-09T03:53:10.236Z,27.63
2023-04-09T03:55:58.098Z,29.50
2023-04-09T03:58:48.407Z,30.27
2023-04-09T04:01:38.163Z,28.80
2023-04-09T04:04:25.964Z,31.97
2023-04-09T04:07:17.103Z,32.67
2023-04-09T04:10:15.780Z,30.60
2023-04-09T04:13:08.271Z,27.77
2023-04-09T04:16:08.507Z,27.60
2023-04-09T04:18:58.402Z,30.97
2023-04-09T04:21:47.081Z,30.00
2023-04-09T04:24:34.403Z,24.07
2023-04-09T04:27:22.803Z,29.17
2023-04-09T04:30:11.223Z,32.27
2023-04-09T04:33:13.673Z,31.00
2023-04-09T04:36:08.710Z,29.50
2023-04-09T04:39:00.094Z,29.07
2023-04-09T04:42:07.806Z,29.00
2023-04-09T04:44:55.645Z,28.37
2023-04-09T04:48:09.112Z,27.27
2023-04-09T04:50:57.425Z,29.80
2023-04-09T04:53:47.418Z,30.63
2023-04-09T04:56:35.518Z,31.20
2023-04-09T04:59:29.416Z,31.90
2023-04-09T05:02:21.518Z,31.47
2023-04-09T05:05:27.836Z,30.63
2023-04-09T05:08:17.717Z,29.40
2023-04-09T05:11:12.884Z,28.20
2023-04-09T05:14:01.715Z,33.57
2023-04-09T05:16:49.255Z,36.63
2023-04-09T05:19:38.910Z,38.17
2023-04-09T05:22:26.499Z,33.90
2023-04-09T05:25:16.047Z,31.87
2023-04-09T05:28:04.696Z,36.47
2023-04-09T05:30:53.913Z,34.30
2023-04-09T05:33:41.343Z,33.47
2023-04-09T05:36:36.041Z,32.77
2023-04-09T05:39:23.600Z,38.80
2023-04-09T05:42:11.938Z,48.57
2023-04-09T05:45:11.897Z,63.03
2023-04-09T05:48:08.284Z,34.40
2023-04-09T05:50:56.055Z,30.67
2023-04-09T05:53:46.113Z,47.60
2023-04-09T05:56:33.447Z,33.47
2023-04-09T05:59:22.570Z,32.33
2023-04-09T06:02:11.443Z,49.53
2023-04-09T06:04:59.289Z,33.50
2023-04-09T06:07:46.667Z,81.73
2023-04-09T06:10:34.724Z,42.73
2023-04-09T06:13:22.645Z,68.93
2023-04-09T06:16:10.831Z,64.57
2023-04-09T06:18:59.592Z,57.27
2023-04-09T06:21:46.739Z,81.93
2023-04-09T06:24:34.148Z,50.23
2023-04-09T06:27:22.143Z,39.93
2023-04-09T06:30:11.044Z,46.00
2023-04-09T06:32:58.160Z,41.20
2023-04-09T06:35:47.160Z,39.37
2023-04-09T06:38:34.521Z,41.30
2023-04-09T06:41:22.411Z,43.27
2023-04-09T06:44:09.822Z,35.90
2023-04-09T06:46:57.321Z,37.70
2023-04-09T06:49:44.890Z,45.53
2023-04-09T06:52:33.825Z,40.33
2023-04-09T06:55:21.101Z,36.77
2023-04-09T06:58:08.349Z,38.03
2023-04-09T07:00:56.321Z,38.00
2023-04-09T07:03:43.890Z,37.10
2023-04-09T07:06:31.128Z,40.13
2023-04-09T07:09:19.862Z,49.07
2023-04-09T07:12:07.082Z,43.33
2023-04-09T07:14:54.531Z,43.20
2023-04-09T07:17:42.081Z,46.17
2023-04-09T07:20:29.461Z,48.50
2023-04-09T07:23:17.294Z,47.23
2023-04-09T07:26:06.879Z,50.00
2023-04-09T07:28:54.103Z,44.73
2023-04-09T07:31:41.594Z,44.00
2023-04-09T07:34:28.981Z,42.27
2023-04-09T07:37:16.800Z,36.80
2023-04-09T07:40:04.618Z,36.00
2023-04-09T07:42:54.227Z,34.90
2023-04-09T07:45:41.473Z,35.60
2023-04-09T07:48:28.886Z,32.20
2023-04-09T07:51:16.322Z,36.03
2023-04-09T07:54:03.742Z,30.43
2023-04-09T07:56:51.407Z,31.83
2023-04-09T07:59:40.079Z,35.83
2023-04-09T08:02:27.852Z,29.97
2023-04-09T08:05:15.423Z,32.97
2023-04-09T08:08:03.121Z,34.57
2023-04-09T08:10:50.722Z,30.17
2023-04-09T08:13:38.036Z,29.30
2023-04-09T08:16:26.891Z,27.60
2023-04-09T08:19:14.767Z,27.23
2023-04-09T08:22:02.947Z,27.55
2023-04-09T08:24:53.081Z,27.42
2023-04-09T08:27:40.642Z,27.10
2023-04-09T08:30:27.748Z,24.63
2023-04-09T08:33:16.674Z,27.00
2023-04-09T08:36:03.928Z,25.67
2023-04-09T08:38:53.124Z,24.90
2023-04-09T08:41:44.437Z,25.85
2023-04-09T08:44:31.544Z,23.95
2023-04-09T08:47:20.572Z,25.88
2023-04-09T08:50:09.938Z,24.30
2023-04-09T08:52:59.085Z,24.92
2023-04-09T08:55:46.916Z,25.85
2023-04-09T08:58:34.399Z,26.55
2023-04-09T09:01:24.775Z,28.45
2023-04-09T09:04:12.325Z,27.65
2023-04-09T09:07:07.788Z,27.58
2023-04-09T09:09:57.033Z,28.77
2023-04-09T09:12:44.447Z,29.00
2023-04-09T09:15:31.582Z,27.90
2023-04-09T09:18:20.215Z,29.10
2023-04-09T09:21:14.170Z,28.85
2023-04-09T09:24:03.051Z,32.67
2023-04-09T09:26:50.462Z,28.17
2023-04-09T09:29:42.750Z,28.52
2023-04-09T09:32:30.719Z,26.05
2023-04-09T09:35:17.768Z,28.50
2023-04-09T09:38:05.455Z,26.73
2023-04-09T09:40:54.210Z,27.55
2023-04-09T09:43:42.631Z,27.10
2023-04-09T09:46:31.935Z,28.23
2023-04-09T09:49:19.174Z,29.13
2023-04-09T09:52:09.901Z,28.15
2023-04-09T09:55:00.786Z,27.63
2023-04-09T09:57:51.552Z,27.23
2023-04-09T10:00:41.234Z,25.50
2023-04-09T10:03:30.764Z,27.15
2023-04-09T10:06:18.587Z,25.77
2023-04-09T10:09:07.767Z,25.65
2023-04-09T10:11:57.891Z,25.52
2023-04-09T10:14:46.712Z,26.05
2023-04-09T10:17:34.161Z,26.30
2023-04-09T10:20:37.119Z,29.63
2023-04-09T10:23:32.980Z,25.55
2023-04-09T10:26:20.760Z,28.25
2023-04-09T10:29:09.057Z,26.13
2023-04-09T10:32:06.715Z,25.33
2023-04-09T10:34:58.743Z,26.88
2023-04-09T10:37:50.660Z,25.20
2023-04-09T10:40:42.480Z,25.13
2023-04-09T10:43:31.604Z,24.48
2023-04-09T10:46:30.109Z,23.90
2023-04-09T10:49:20.860Z,25.70
2023-04-09T10:52:12.028Z,25.97
2023-04-09T10:54:59.734Z,24.77
2023-04-09T10:57:46.994Z,26.95
2023-04-09T11:00:38.339Z,26.52
2023-04-09T11:03:29.011Z,31.42
2023-04-09T11:06:21.376Z,28.55
2023-04-09T11:09:08.770Z,25.98
2023-04-09T11:11:57.436Z,23.52
2023-04-09T11:14:45.202Z,23.73
2023-04-09T11:17:37.537Z,27.90
2023-04-09T11:20:26.409Z,23.17
2023-04-09T11:23:15.376Z,25.13
2023-04-09T11:26:03.091Z,24.50
2023-04-09T11:28:50.639Z,21.38
2023-04-09T11:31:37.846Z,23.38
2023-04-09T11:34:29.114Z,19.40
2023-04-09T11:37:17.242Z,19.63
2023-04-09T11:40:07.101Z,22.10
2023-04-09T11:42:55.627Z,22.95
2023-04-09T11:45:43.170Z,23.27
2023-04-09T11:48:31.599Z,23.57
2023-04-09T11:51:18.965Z,22.77
2023-04-09T11:54:07.109Z,22.30
2023-04-09T11:56:56.133Z,22.47
2023-04-09T11:59:43.430Z,21.63
2023-04-09T12:02:31.476Z,20.80
2023-04-09T12:05:26.492Z,21.88
2023-04-09T12:08:13.971Z,21.60
2023-04-09T12:11:10.426Z,21.55
2023-04-09T12:14:02.830Z,19.53
2023-04-09T12:16:53.167Z,18.77
2023-04-09T12:19:40.788Z,19.47
2023-04-09T12:22:28.349Z,20.70
2023-04-09T12:25:15.551Z,20.37
2023-04-09T12:28:03.488Z,19.67
2023-04-09T12:30:52.655Z,21.85
2023-04-09T12:33:40.326Z,19.47
2023-04-09T12:36:27.626Z,21.13
2023-04-09T12:39:15.498Z,19.63
2023-04-09T12:42:03.008Z,19.80
2023-04-09T12:44:50.597Z,19.83
2023-04-09T12:47:39.723Z,18.75
2023-04-09T12:50:26.925Z,19.48
2023-04-09T12:53:14.391Z,18.83
2023-04-09T12:56:01.800Z,21.02
2023-04-09T12:58:49.225Z,18.75
2023-04-09T13:01:36.784Z,20.43
2023-04-09T13:04:25.674Z,18.35
2023-04-09T13:07:15.596Z,19.17
2023-04-09T13:10:02.783Z,18.48
2023-04-09T13:12:51.380Z,21.05
2023-04-09T13:15:38.758Z,18.13
2023-04-09T13:18:26.089Z,17.58
2023-04-09T13:21:18.576Z,18.80
2023-04-09T13:24:06.787Z,18.60
2023-04-09T13:26:54.052Z,18.13
2023-04-09T13:29:41.664Z,18.38
2023-04-09T13:32:28.791Z,20.13
2023-04-09T13:35:16.223Z,16.65
2023-04-09T13:38:05.096Z,21.83
2023-04-09T13:40:52.147Z,16.92
2023-04-09T13:43:39.535Z,15.10
2023-04-09T13:46:27.872Z,13.52
2023-04-09T13:49:15.112Z,14.95
2023-04-09T13:52:04.440Z,13.43
2023-04-09T13:54:54.256Z,14.25
2023-04-09T13:57:41.556Z,13.48
2023-04-09T14:00:29.021Z,15.13
2023-04-09T14:03:16.689Z,17.90
2023-04-09T14:06:04.597Z,14.73
2023-04-09T14:08:52.272Z,16.55
2023-04-09T14:11:40.790Z,14.02
2023-04-09T14:14:28.244Z,15.02
2023-04-09T14:17:16.041Z,14.75
2023-04-09T14:20:04.567Z,13.38
2023-04-09T14:22:52.011Z,18.67
2023-04-09T14:25:39.146Z,11.55
2023-04-09T14:28:27.867Z,10.85
2023-04-09T14:31:15.262Z,10.02
2023-04-09T14:34:02.390Z,11.75
2023-04-09T14:36:49.774Z,12.65
2023-04-09T14:39:37.307Z,10.43
2023-04-09T14:42:24.523Z,11.95
2023-04-09T14:45:13.226Z,13.52
2023-04-09T14:48:00.744Z,12.93
2023-04-09T14:50:51.202Z,10.88
2023-04-09T14:53:38.690Z,9.57
2023-04-09T14:56:26.154Z,10.20
2023-04-09T14:59:13.653Z,14.73
2023-04-09T15:02:02.930Z,13.20
2023-04-09T15:04:50.687Z,12.48
2023-04-09T15:07:39.125Z,13.52
2023-04-09T15:10:26.531Z,12.30
2023-04-09T15:13:13.845Z,13.07
2023-04-09T15:16:01.161Z,14.68
2023-04-09T15:18:51.989Z,16.15
2023-04-09T15:21:39.637Z,13.45
2023-04-09T15:24:26.944Z,16.15
2023-04-09T15:27:14.338Z,15.27
2023-04-09T15:30:01.812Z,14.75
2023-04-09T15:32:49.221Z,15.57
2023-04-09T15:35:38.035Z,16.38
2023-04-09T15:38:25.433Z,27.02
2023-04-09T15:41:13.107Z,20.60
2023-04-09T15:44:00.445Z,21.02
2023-04-09T15:46:47.811Z,17.65
2023-04-09T15:49:36.689Z,17.05
2023-04-09T15:52:25.785Z,16.13
2023-04-09T15:55:13.004Z,16.75
2023-04-09T15:58:00.523Z,19.63
2023-04-09T16:00:50.325Z,20.52
2023-04-09T16:03:39.745Z,18.40
2023-04-09T16:06:27.369Z,18.77
2023-04-09T16:09:16.219Z,18.60
2023-04-09T16:12:03.749Z,17.48
2023-04-09T16:14:51.464Z,18.48
2023-04-09T16:17:40.845Z,19.80
2023-04-09T16:20:29.314Z,18.02
2023-04-09T16:23:16.532Z,20.40
2023-04-09T16:26:05.538Z,18.77
2023-04-09T16:28:53.377Z,17.30
2023-04-09T16:31:42.429Z,19.70
2023-04-09T16:34:31.426Z,18.35
2023-04-09T16:37:18.624Z,19.23
2023-04-09T16:40:07.023Z,18.42
2023-04-09T16:42:56.060Z,18.13
2023-04-09T16:45:43.748Z,17.60
2023-04-09T16:48:31.036Z,20.40
2023-04-09T16:51:18.454Z,17.85
2023-04-09T16:54:06.430Z,17.77
2023-04-09T16:56:54.098Z,15.40
2023-04-09T16:59:44.812Z,14.77
2023-04-09T17:02:32.417Z,16.25
2023-04-09T17:05:19.984Z,14.07
2023-04-09T17:08:07.202Z,16.45
2023-04-09T17:11:01.742Z,15.60
2023-04-09T17:13:49.106Z,28.48
2023-04-09T17:16:38.070Z,100.22
2023-04-09T17:19:25.510Z,26.13
2023-04-09T17:22:13.889Z,20.70
2023-04-09T17:25:01.736Z,31.15
2023-04-09T17:27:49.037Z,23.88
2023-04-09T17:30:36.632Z,18.85
2023-04-09T17:33:26.000Z,19.52
2023-04-09T17:36:13.124Z,21.02
2023-04-09T17:39:00.578Z,13.05
2023-04-09T17:41:48.124Z,14.90
2023-04-09T17:44:35.671Z,15.50
2023-04-09T17:47:23.188Z,18.65
2023-04-09T17:50:12.832Z,33.38
2023-04-09T17:53:00.188Z,27.90
2023-04-09T17:55:48.856Z,25.75
2023-04-09T17:58:36.142Z,24.75
2023-04-09T18:01:23.711Z,20.60
2023-04-09T18:04:11.866Z,16.57
2023-04-09T18:07:00.554Z,17.43
2023-04-09T18:09:47.768Z,13.15
2023-04-09T18:12:35.597Z,20.70
2023-04-09T18:15:23.037Z,27.80
2023-04-09T18:18:10.402Z,34.53
2023-04-09T18:20:57.676Z,29.93
2023-04-09T18:23:46.530Z,29.40
2023-04-09T18:26:34.420Z,26.80
2023-04-09T18:29:21.569Z,26.70
2023-04-09T18:32:09.144Z,23.03
2023-04-09T18:34:56.941Z,25.87
2023-04-09T18:37:44.263Z,23.67
2023-04-09T18:40:32.966Z,20.70
2023-04-09T18:43:20.726Z,19.07
2023-04-09T18:46:08.132Z,23.30
2023-04-09T18:48:55.706Z,24.47
2023-04-09T18:51:42.898Z,22.90
2023-04-09T18:54:30.449Z,25.07
2023-04-09T18:57:19.316Z,24.73
2023-04-09T19:00:08.038Z,27.67
2023-04-09T19:02:55.311Z,35.13
2023-04-09T19:05:42.990Z,36.90
2023-04-09T19:08:35.534Z,35.13
2023-04-09T19:11:24.252Z,30.37
2023-04-09T19:14:13.086Z,29.23
2023-04-09T19:17:02.302Z,27.57
2023-04-09T19:19:50.012Z,29.80
2023-04-09T19:22:37.454Z,30.97
2023-04-09T19:25:25.209Z,29.60
2023-04-09T19:28:12.556Z,29.13
2023-04-09T19:31:03.446Z,27.77
2023-04-09T19:33:51.717Z,27.57
2023-04-09T19:36:38.974Z,26.13
2023-04-09T19:39:27.218Z,24.57
2023-04-09T19:42:14.193Z,25.07
2023-04-09T19:45:01.775Z,25.00
2023-04-09T19:47:50.641Z,25.23
2023-04-09T19:50:38.994Z,25.83
2023-04-09T19:53:26.091Z,27.80
2023-04-09T19:56:13.690Z,24.40
2023-04-09T19:59:00.960Z,23.43
2023-04-09T20:01:48.943Z,26.43
2023-04-09T20:04:37.707Z,27.03
2023-04-09T20:07:24.841Z,26.13
2023-04-09T20:10:12.833Z,27.33
2023-04-09T20:13:00.029Z,26.60
2023-04-09T20:15:47.670Z,28.50
2023-04-09T20:18:34.999Z,25.47
2023-04-09T20:21:24.076Z,24.67
2023-04-09T20:24:11.437Z,24.53
2023-04-09T20:26:59.570Z,27.83
2023-04-09T20:29:47.980Z,32.83
2023-04-09T20:32:37.749Z,31.27
2023-04-09T20:35:24.935Z,31.57
2023-04-09T20:38:13.625Z,29.57
2023-04-09T20:41:01.114Z,26.90
2023-04-09T20:43:48.354Z,24.97
2023-04-09T20:46:35.824Z,26.07
2023-04-09T20:49:23.931Z,24.67
2023-04-09T20:52:11.180Z,26.23
2023-04-09T20:55:00.562Z,24.40
2023-04-09T20:57:49.382Z,24.23
2023-04-09T21:00:36.509Z,27.80
2023-04-09T21:03:24.255Z,26.10
2023-04-09T21:06:12.103Z,22.83
2023-04-09T21:08:59.957Z,23.93
2023-04-09T21:11:48.815Z,25.40
2023-04-09T21:14:36.055Z,28.30
2023-04-09T21:17:23.665Z,27.47
2023-04-09T21:20:12.862Z,27.47
2023-04-09T21:23:00.094Z,29.37
2023-04-09T21:25:47.531Z,30.07
2023-04-09T21:28:36.536Z,30.10
2023-04-09T21:31:24.712Z,28.87
2023-04-09T21:34:12.390Z,26.47
2023-04-09T21:36:59.869Z,28.07
2023-04-09T21:39:48.315Z,27.80
2023-04-09T21:42:35.491Z,28.07
2023-04-09T21:45:24.356Z,22.53
2023-04-09T21:48:11.551Z,24.73
2023-04-09T21:50:59.367Z,26.17
2023-04-09T21:53:47.488Z,28.47
2023-04-09T21:56:35.827Z,29.87
2023-04-09T21:59:23.156Z,26.23
2023-04-09T22:02:12.055Z,23.27
2023-04-09T22:05:00.959Z,28.73
2023-04-09T22:07:48.357Z,29.13
2023-04-09T22:10:35.929Z,24.83
2023-04-09T22:13:23.331Z,25.57
2023-04-09T22:16:11.256Z,25.60
2023-04-09T22:18:59.942Z,30.60
2023-04-09T22:21:50.468Z,26.43
2023-04-09T22:24:39.234Z,32.23
2023-04-09T22:27:26.766Z,24.90
2023-04-09T22:30:14.929Z,30.80
2023-04-09T22:33:03.105Z,28.00
2023-04-09T22:35:51.628Z,24.03
2023-04-09T22:38:38.940Z,27.40
2023-04-09T22:41:26.457Z,29.37
2023-04-09T22:44:13.637Z,26.27
2023-04-09T22:47:01.340Z,29.73
2023-04-09T22:49:52.660Z,32.23
2023-04-09T22:52:41.238Z,27.90
2023-04-09T22:55:28.673Z,30.20
2023-04-09T22:58:16.089Z,33.90
2023-04-09T23:01:03.654Z,29.40
2023-04-09T23:03:51.687Z,30.47
2023-04-09T23:06:38.925Z,30.80
2023-04-09T23:09:27.719Z,32.83
2023-04-09T23:12:14.945Z,28.63
2023-04-09T23:15:02.618Z,29.93
2023-04-09T23:17:51.502Z,31.33
2023-04-09T23:20:38.832Z,33.40
2023-04-09T23:23:26.403Z,31.03
2023-04-09T23:26:15.097Z,28.73
2023-04-09T23:29:02.192Z,28.70
2023-04-09T23:31:49.676Z,39.00
2023-04-09T23:34:37.180Z,31.10
2023-04-09T23:37:24.617Z,34.07
2023-04-09T23:40:14.631Z,37.57
2023-04-09T23:43:03.743Z,33.57
2023-04-09T23:45:51.364Z,33.07
2023-04-09T23:48:38.562Z,32.40
2023-04-09T23:51:26.030Z,33.57
2023-04-09T23:54:13.686Z,33.53
2023-04-09T23:57:00.858Z,31.80
2023-04-09T23:59:49.778Z,33.37
